sensor_id;sensor_type;location;lat;lon;timestamp;pressure;altitude;pressure_sealevel;temperature;humidity
10638;BME280;47007;49.252;8.904;2023-03-26T00:00:30;99241.28;;;9.18;100.00
10638;BME280;47007;49.252;8.904;2023-03-26T00:01:16;99252.75;;;9.25;100.00
10638;BME280;47007;49.252;8.904;2023-03-26T00:01:58;99246.66;;;9.24;100.00
10638;BME280;47007;49.252;8.904;2023-03-26T00:02:40;99244.81;;;9.25;100.00
10638;BME280;47007;49.252;8.904;2023-03-26T00:03:22;99253.41;;;9.27;100.00
10638;BME280;47007;49.252;8.904;2023-03-26T00:04:05;99239.09;;;9.21;100.00
10638;BME280;47007;49.252;8.904;2023-03-26T00:04:47;99247.03;;;9.21;100.00
10638;BME280;47007;49.252;8.904;2023-03-26T00:05:28;99243.56;;;9.21;100.00
10638;BME280;47007;49.252;8.904;2023-03-26T00:06:14;99247.84;;;9.22;100.00
10638;BME280;47007;49.252;8.904;2023-03-26T00:06:56;99243.56;;;9.21;100.00
10638;BME280;47007;49.252;8.904;2023-03-26T00:07:38;99246.38;;;9.19;100.00
10638;BME280;47007;49.252;8.904;2023-03-26T00:08:20;99243.09;;;9.17;100.00
10638;BME280;47007;49.252;8.904;2023-03-26T00:09:03;99232.84;;;9.08;100.00
10638;BME280;47007;49.252;8.904;2023-03-26T00:09:45;99236.31;;;9.08;100.00
10638;BME280;47007;49.252;8.904;2023-03-26T00:10:26;99252.03;;;9.16;100.00
10638;BME280;47007;49.252;8.904;2023-03-26T00:11:10;99251.03;;;9.17;100.00
10638;BME280;47007;49.252;8.904;2023-03-26T00:11:51;99247.75;;;9.15;100.00
10638;BME280;47007;49.252;8.904;2023-03-26T00:12:33;99249.34;;;9.10;100.00
10638;BME280;47007;49.252;8.904;2023-03-26T00:13:15;99247.72;;;9.09;100.00
10638;BME280;47007;49.252;8.904;2023-03-26T00:13:57;99252.00;;;9.10;100.00
10638;BME280;47007;49.252;8.904;2023-03-26T00:14:39;99248.88;;;9.06;100.00
10638;BME280;47007;49.252;8.904;2023-03-26T00:15:21;99246.88;;;9.08;100.00
10638;BME280;47007;49.252;8.904;2023-03-26T00:16:03;99247.06;;;9.07;100.00
10638;BME280;47007;49.252;8.904;2023-03-26T00:16:45;99247.25;;;9.05;100.00
10638;BME280;47007;49.252;8.904;2023-03-26T00:17:28;99242.28;;;8.95;100.00
10638;BME280;47007;49.252;8.904;2023-03-26T00:18:09;99243.72;;;8.98;100.00
10638;BME280;47007;49.252;8.904;2023-03-26T00:18:51;99214.63;;;8.77;100.00
10638;BME280;47007;49.252;8.904;2023-03-26T00:19:33;99213.72;;;8.70;100.00
10638;BME280;47007;49.252;8.904;2023-03-26T00:20:15;99249.03;;;8.83;100.00
10638;BME280;47007;49.252;8.904;2023-03-26T00:20:58;99240.06;;;8.78;100.00
10638;BME280;47007;49.252;8.904;2023-03-26T00:21:40;99233.41;;;8.67;100.00
10638;BME280;47007;49.252;8.904;2023-03-26T00:22:22;99245.88;;;8.73;100.00
10638;BME280;47007;49.252;8.904;2023-03-26T00:23:04;99251.16;;;8.73;100.00
10638;BME280;47007;49.252;8.904;2023-03-26T00:23:46;99244.25;;;8.72;100.00
10638;BME280;47007;49.252;8.904;2023-03-26T00:24:29;99225.59;;;8.59;100.00
10638;BME280;47007;49.252;8.904;2023-03-26T00:25:11;99242.16;;;8.68;100.00
10638;BME280;47007;49.252;8.904;2023-03-26T00:25:55;99245.78;;;8.67;100.00
10638;BME280;47007;49.252;8.904;2023-03-26T00:26:37;99239.06;;;8.64;100.00
10638;BME280;47007;49.252;8.904;2023-03-26T00:27:19;99244.53;;;8.62;100.00
10638;BME280;47007;49.252;8.904;2023-03-26T00:28:00;99251.19;;;8.58;100.00
10638;BME280;47007;49.252;8.904;2023-03-26T00:28:44;99250.53;;;8.56;100.00
10638;BME280;47007;49.252;8.904;2023-03-26T00:29:25;99253.75;;;8.52;100.00
10638;BME280;47007;49.252;8.904;2023-03-26T00:30:08;99235.47;;;8.36;100.00
10638;BME280;47007;49.252;8.904;2023-03-26T00:31:00;99253.84;;;8.44;100.00
10638;BME280;47007;49.252;8.904;2023-03-26T00:31:43;99250.94;;;8.39;100.00
10638;BME280;47007;49.252;8.904;2023-03-26T00:32:27;99249.03;;;8.33;100.00
10638;BME280;47007;49.252;8.904;2023-03-26T00:33:09;99251.97;;;8.29;100.00
10638;BME280;47007;49.252;8.904;2023-03-26T00:33:52;99247.91;;;8.27;100.00
10638;BME280;47007;49.252;8.904;2023-03-26T00:34:37;99241.88;;;8.18;100.00
10638;BME280;47007;49.252;8.904;2023-03-26T00:35:21;99240.88;;;8.19;100.00
10638;BME280;47007;49.252;8.904;2023-03-26T00:36:15;99251.44;;;8.19;100.00
10638;BME280;47007;49.252;8.904;2023-03-26T00:37:00;99258.72;;;8.17;100.00
10638;BME280;47007;49.252;8.904;2023-03-26T00:37:43;99251.72;;;8.10;100.00
10638;BME280;47007;49.252;8.904;2023-03-26T00:38:27;99242.69;;;8.04;100.00
10638;BME280;47007;49.252;8.904;2023-03-26T00:39:09;99236.97;;;8.01;100.00
10638;BME280;47007;49.252;8.904;2023-03-26T00:39:55;99250.91;;;8.09;100.00
10638;BME280;47007;49.252;8.904;2023-03-26T00:40:42;99256.53;;;8.06;100.00
10638;BME280;47007;49.252;8.904;2023-03-26T00:41:24;99254.88;;;8.05;100.00
10638;BME280;47007;49.252;8.904;2023-03-26T00:42:07;99247.16;;;8.04;100.00
10638;BME280;47007;49.252;8.904;2023-03-26T00:42:49;99253.63;;;8.01;100.00
10638;BME280;47007;49.252;8.904;2023-03-26T00:43:33;99253.63;;;8.01;100.00
10638;BME280;47007;49.252;8.904;2023-03-26T00:44:15;99266.19;;;7.99;100.00
10638;BME280;47007;49.252;8.904;2023-03-26T00:44:57;99241.22;;;7.87;100.00
10638;BME280;47007;49.252;8.904;2023-03-26T00:45:39;99252.25;;;7.90;100.00
10638;BME280;47007;49.252;8.904;2023-03-26T00:46:25;99261.78;;;7.91;100.00
10638;BME280;47007;49.252;8.904;2023-03-26T00:47:07;99248.31;;;7.86;100.00
10638;BME280;47007;49.252;8.904;2023-03-26T00:47:49;99237.09;;;7.70;100.00
10638;BME280;47007;49.252;8.904;2023-03-26T00:48:31;99242.38;;;7.70;100.00
10638;BME280;47007;49.252;8.904;2023-03-26T00:49:26;99247.78;;;7.76;100.00
10638;BME280;47007;49.252;8.904;2023-03-26T00:50:07;99265.41;;;7.76;100.00
10638;BME280;47007;49.252;8.904;2023-03-26T00:50:55;99248.19;;;7.65;100.00
10638;BME280;47007;49.252;8.904;2023-03-26T00:51:37;99255.56;;;7.70;100.00
10638;BME280;47007;49.252;8.904;2023-03-26T00:52:20;99256.94;;;7.66;100.00
10638;BME280;47007;49.252;8.904;2023-03-26T00:53:02;99238.44;;;7.51;100.00
10638;BME280;47007;49.252;8.904;2023-03-26T00:53:45;99252.06;;;7.54;100.00
10638;BME280;47007;49.252;8.904;2023-03-26T00:54:28;99256.97;;;7.57;100.00
10638;BME280;47007;49.252;8.904;2023-03-26T00:55:10;99253.69;;;7.55;100.00
10638;BME280;47007;49.252;8.904;2023-03-26T00:55:51;99237.47;;;7.44;100.00
10638;BME280;47007;49.252;8.904;2023-03-26T00:56:34;99240.94;;;7.44;100.00
10638;BME280;47007;49.252;8.904;2023-03-26T00:57:16;99253.09;;;7.53;100.00
10638;BME280;47007;49.252;8.904;2023-03-26T00:58:15;99241.41;;;7.48;100.00
10638;BME280;47007;49.252;8.904;2023-03-26T00:58:56;99232.38;;;7.42;100.00
10638;BME280;47007;49.252;8.904;2023-03-26T00:59:40;99249.31;;;7.48;100.00
10638;BME280;47007;49.252;8.904;2023-03-26T01:00:32;99219.09;;;7.36;100.00
10638;BME280;47007;49.252;8.904;2023-03-26T01:01:18;99242.06;;;7.50;100.00
10638;BME280;47007;49.252;8.904;2023-03-26T01:02:02;99235.03;;;7.42;100.00
10638;BME280;47007;49.252;8.904;2023-03-26T01:02:45;99244.34;;;7.53;100.00
10638;BME280;47007;49.252;8.904;2023-03-26T01:03:29;99240.50;;;7.55;100.00
10638;BME280;47007;49.252;8.904;2023-03-26T01:04:29;99220.66;;;7.45;100.00
10638;BME280;47007;49.252;8.904;2023-03-26T01:06:21;99231.56;;;7.65;100.00
10638;BME280;47007;49.252;8.904;2023-03-26T01:07:15;99232.81;;;7.69;100.00
10638;BME280;47007;49.252;8.904;2023-03-26T01:08:08;99235.09;;;7.72;100.00
10638;BME280;47007;49.252;8.904;2023-03-26T01:08:55;99229.47;;;7.75;100.00
10638;BME280;47007;49.252;8.904;2023-03-26T01:09:42;99229.13;;;7.78;100.00
10638;BME280;47007;49.252;8.904;2023-03-26T01:10:25;99218.28;;;7.73;100.00
10638;BME280;47007;49.252;8.904;2023-03-26T01:11:16;99225.13;;;7.82;100.00
10638;BME280;47007;49.252;8.904;2023-03-26T01:12:04;99231.22;;;7.82;100.00
10638;BME280;47007;49.252;8.904;2023-03-26T01:12:47;99224.94;;;7.83;100.00
10638;BME280;47007;49.252;8.904;2023-03-26T01:13:31;99231.69;;;7.86;100.00
10638;BME280;47007;49.252;8.904;2023-03-26T01:14:16;99230.69;;;7.87;100.00
10638;BME280;47007;49.252;8.904;2023-03-26T01:14:59;99227.03;;;7.88;100.00
10638;BME280;47007;49.252;8.904;2023-03-26T01:15:43;99193.53;;;7.74;100.00
10638;BME280;47007;49.252;8.904;2023-03-26T01:16:35;99203.75;;;7.77;100.00
10638;BME280;47007;49.252;8.904;2023-03-26T01:17:17;99209.94;;;7.84;100.00
10638;BME280;47007;49.252;8.904;2023-03-26T01:17:59;99221.59;;;7.89;100.00
10638;BME280;47007;49.252;8.904;2023-03-26T01:18:45;99212.84;;;7.89;100.00
10638;BME280;47007;49.252;8.904;2023-03-26T01:20:26;99198.28;;;7.78;100.00
10638;BME280;47007;49.252;8.904;2023-03-26T01:21:11;99191.09;;;7.72;100.00
10638;BME280;47007;49.252;8.904;2023-03-26T01:21:54;99208.63;;;7.80;100.00
10638;BME280;47007;49.252;8.904;2023-03-26T01:22:37;99206.81;;;7.80;100.00
10638;BME280;47007;49.252;8.904;2023-03-26T01:23:22;99208.47;;;7.81;100.00
10638;BME280;47007;49.252;8.904;2023-03-26T01:24:06;99213.56;;;7.83;100.00
10638;BME280;47007;49.252;8.904;2023-03-26T01:24:49;99215.19;;;7.84;100.00
10638;BME280;47007;49.252;8.904;2023-03-26T01:25:39;99212.38;;;7.85;100.00
10638;BME280;47007;49.252;8.904;2023-03-26T01:27:00;99203.66;;;7.85;100.00
10638;BME280;47007;49.252;8.904;2023-03-26T01:27:47;99212.22;;;7.87;100.00
10638;BME280;47007;49.252;8.904;2023-03-26T01:28:32;99202.19;;;7.82;100.00
10638;BME280;47007;49.252;8.904;2023-03-26T01:30:45;99208.28;;;7.83;100.00
10638;BME280;47007;49.252;8.904;2023-03-26T01:31:36;99199.47;;;7.76;100.00
10638;BME280;47007;49.252;8.904;2023-03-26T01:32:47;99204.81;;;7.68;100.00
10638;BME280;47007;49.252;8.904;2023-03-26T01:33:41;99201.59;;;7.57;100.00
10638;BME280;47007;49.252;8.904;2023-03-26T01:34:44;99184.00;;;7.35;100.00
10638;BME280;47007;49.252;8.904;2023-03-26T01:36:31;99199.34;;;7.32;100.00
10638;BME280;47007;49.252;8.904;2023-03-26T01:37:26;99180.59;;;7.12;100.00
10638;BME280;47007;49.252;8.904;2023-03-26T01:39:31;99193.75;;;7.12;100.00
10638;BME280;47007;49.252;8.904;2023-03-26T01:40:33;99167.06;;;6.92;100.00
10638;BME280;47007;49.252;8.904;2023-03-26T01:41:26;99187.91;;;7.02;100.00
10638;BME280;47007;49.252;8.904;2023-03-26T01:42:14;99189.25;;;6.98;100.00
10638;BME280;47007;49.252;8.904;2023-03-26T01:43:12;99187.59;;;6.97;100.00
10638;BME280;47007;49.252;8.904;2023-03-26T01:44:03;99185.69;;;6.91;100.00
10638;BME280;47007;49.252;8.904;2023-03-26T01:44:58;99182.41;;;6.89;100.00
10638;BME280;47007;49.252;8.904;2023-03-26T01:45:43;99189.00;;;6.84;100.00
10638;BME280;47007;49.252;8.904;2023-03-26T01:46:27;99159.50;;;6.66;100.00
10638;BME280;47007;49.252;8.904;2023-03-26T01:47:10;99180.16;;;6.77;100.00
10638;BME280;47007;49.252;8.904;2023-03-26T01:47:53;99183.97;;;6.75;100.00
10638;BME280;47007;49.252;8.904;2023-03-26T01:48:41;99179.22;;;6.70;100.00
10638;BME280;47007;49.252;8.904;2023-03-26T01:49:26;99183.81;;;6.68;100.00
10638;BME280;47007;49.252;8.904;2023-03-26T01:50:08;99173.69;;;6.57;100.00
10638;BME280;47007;49.252;8.904;2023-03-26T01:50:51;99173.66;;;6.65;100.00
10638;BME280;47007;49.252;8.904;2023-03-26T01:51:36;99174.81;;;6.63;100.00
10638;BME280;47007;49.252;8.904;2023-03-26T01:52:21;99167.09;;;6.61;100.00
10638;BME280;47007;49.252;8.904;2023-03-26T01:53:06;99177.16;;;6.58;100.00
10638;BME280;47007;49.252;8.904;2023-03-26T01:53:49;99161.06;;;6.53;100.00
10638;BME280;47007;49.252;8.904;2023-03-26T01:54:31;99155.31;;;6.49;100.00
10638;BME280;47007;49.252;8.904;2023-03-26T01:55:14;99151.91;;;6.40;100.00
10638;BME280;47007;49.252;8.904;2023-03-26T01:57:14;99167.31;;;6.52;100.00
10638;BME280;47007;49.252;8.904;2023-03-26T01:58:05;99167.16;;;6.53;100.00
10638;BME280;47007;49.252;8.904;2023-03-26T02:00:05;99170.31;;;6.71;100.00
10638;BME280;47007;49.252;8.904;2023-03-26T02:01:05;99154.34;;;6.73;100.00
10638;BME280;47007;49.252;8.904;2023-03-26T02:02:51;99163.97;;;6.89;100.00
10638;BME280;47007;49.252;8.904;2023-03-26T02:03:42;99159.03;;;6.85;100.00
10638;BME280;47007;49.252;8.904;2023-03-26T02:05:27;99151.19;;;6.77;100.00
10638;BME280;47007;49.252;8.904;2023-03-26T02:06:21;99158.72;;;6.80;100.00
10638;BME280;47007;49.252;8.904;2023-03-26T02:07:18;99152.84;;;6.78;100.00
10638;BME280;47007;49.252;8.904;2023-03-26T02:08:10;99160.50;;;6.88;100.00
10638;BME280;47007;49.252;8.904;2023-03-26T02:09:02;99142.25;;;6.87;100.00
10638;BME280;47007;49.252;8.904;2023-03-26T02:09:49;99160.25;;;6.98;100.00
10638;BME280;47007;49.252;8.904;2023-03-26T02:10:36;99166.66;;;7.03;100.00
10638;BME280;47007;49.252;8.904;2023-03-26T02:11:19;99137.16;;;6.85;100.00
10638;BME280;47007;49.252;8.904;2023-03-26T02:12:04;99131.41;;;6.81;100.00
10638;BME280;47007;49.252;8.904;2023-03-26T02:12:47;99156.22;;;6.87;100.00
10638;BME280;47007;49.252;8.904;2023-03-26T02:13:29;99145.28;;;6.75;100.00
10638;BME280;47007;49.252;8.904;2023-03-26T02:14:12;99153.88;;;6.69;100.00
10638;BME280;47007;49.252;8.904;2023-03-26T02:14:55;99145.38;;;6.59;100.00
10638;BME280;47007;49.252;8.904;2023-03-26T02:15:39;99148.34;;;6.56;100.00
10638;BME280;47007;49.252;8.904;2023-03-26T02:16:21;99144.44;;;6.52;100.00
10638;BME280;47007;49.252;8.904;2023-03-26T02:17:03;99145.28;;;6.53;100.00
10638;BME280;47007;49.252;8.904;2023-03-26T02:17:45;99136.56;;;6.52;100.00
10638;BME280;47007;49.252;8.904;2023-03-26T02:18:28;99141.09;;;6.58;100.00
10638;BME280;47007;49.252;8.904;2023-03-26T02:19:21;99137.16;;;6.62;100.00
10638;BME280;47007;49.252;8.904;2023-03-26T02:20:09;99132.19;;;6.67;100.00
10638;BME280;47007;49.252;8.904;2023-03-26T02:20:51;99093.19;;;6.40;100.00
10638;BME280;47007;49.252;8.904;2023-03-26T02:21:33;99126.44;;;6.64;100.00
10638;BME280;47007;49.252;8.904;2023-03-26T02:22:15;99128.41;;;6.62;100.00
10638;BME280;47007;49.252;8.904;2023-03-26T02:22:58;99124.31;;;6.59;100.00
10638;BME280;47007;49.252;8.904;2023-03-26T02:23:45;99125.13;;;6.60;100.00
10638;BME280;47007;49.252;8.904;2023-03-26T02:24:27;99118.72;;;6.62;100.00
10638;BME280;47007;49.252;8.904;2023-03-26T02:25:14;99119.53;;;6.63;100.00
10638;BME280;47007;49.252;8.904;2023-03-26T02:25:56;99122.63;;;6.66;100.00
10638;BME280;47007;49.252;8.904;2023-03-26T02:26:38;99115.72;;;6.65;100.00
10638;BME280;47007;49.252;8.904;2023-03-26T02:27:23;99103.25;;;6.59;100.00
10638;BME280;47007;49.252;8.904;2023-03-26T02:28:05;99115.56;;;6.67;100.00
10638;BME280;47007;49.252;8.904;2023-03-26T02:28:46;99113.44;;;6.62;100.00
10638;BME280;47007;49.252;8.904;2023-03-26T02:29:29;99093.88;;;6.57;100.00
10638;BME280;47007;49.252;8.904;2023-03-26T02:30:21;99113.91;;;6.66;100.00
10638;BME280;47007;49.252;8.904;2023-03-26T02:31:08;99105.84;;;6.67;100.00
10638;BME280;47007;49.252;8.904;2023-03-26T02:31:51;99107.47;;;6.68;100.00
10638;BME280;47007;49.252;8.904;2023-03-26T02:32:33;99099.75;;;6.67;100.00
10638;BME280;47007;49.252;8.904;2023-03-26T02:33:15;99092.22;;;6.64;100.00
10638;BME280;47007;49.252;8.904;2023-03-26T02:33:57;99105.94;;;6.74;100.00
10638;BME280;47007;49.252;8.904;2023-03-26T02:34:41;99110.06;;;6.76;100.00
10638;BME280;47007;49.252;8.904;2023-03-26T02:35:23;99103.97;;;6.76;100.00
10638;BME280;47007;49.252;8.904;2023-03-26T02:36:10;99104.78;;;6.76;100.00
10638;BME280;47007;49.252;8.904;2023-03-26T02:36:58;99075.66;;;6.55;100.00
10638;BME280;47007;49.252;8.904;2023-03-26T02:37:41;99111.75;;;6.69;100.00
10638;BME280;47007;49.252;8.904;2023-03-26T02:38:31;99096.25;;;6.52;100.00
10638;BME280;47007;49.252;8.904;2023-03-26T02:39:17;99101.53;;;6.43;100.00
10638;BME280;47007;49.252;8.904;2023-03-26T02:40:07;99101.94;;;6.32;100.00
10638;BME280;47007;49.252;8.904;2023-03-26T02:40:55;99108.25;;;6.23;100.00
10638;BME280;47007;49.252;8.904;2023-03-26T02:41:46;99093.50;;;6.14;100.00
10638;BME280;47007;49.252;8.904;2023-03-26T02:42:27;99079.09;;;6.02;100.00
10638;BME280;47007;49.252;8.904;2023-03-26T02:43:09;99091.22;;;6.11;100.00
10638;BME280;47007;49.252;8.904;2023-03-26T02:43:51;99098.28;;;6.10;100.00
10638;BME280;47007;49.252;8.904;2023-03-26T02:44:36;99086.94;;;6.10;100.00
10638;BME280;47007;49.252;8.904;2023-03-26T02:45:26;98995.59;;;5.57;100.00
10638;BME280;47007;49.252;8.904;2023-03-26T02:46:34;99067.38;;;6.12;100.00
10638;BME280;47007;49.252;8.904;2023-03-26T02:47:39;99084.88;;;6.28;100.00
10638;BME280;47007;49.252;8.904;2023-03-26T02:48:43;99076.81;;;6.30;100.00
10638;BME280;47007;49.252;8.904;2023-03-26T02:49:31;99083.00;;;6.37;100.00
10638;BME280;47007;49.252;8.904;2023-03-26T02:50:14;99081.84;;;6.39;100.00
10638;BME280;47007;49.252;8.904;2023-03-26T02:51:23;99062.59;;;6.39;100.00
10638;BME280;47007;49.252;8.904;2023-03-26T02:52:12;99079.47;;;6.53;100.00
10638;BME280;47007;49.252;8.904;2023-03-26T02:52:57;99061.19;;;6.51;100.00
10638;BME280;47007;49.252;8.904;2023-03-26T02:53:40;99054.00;;;6.45;100.00
10638;BME280;47007;49.252;8.904;2023-03-26T02:54:38;99070.50;;;6.62;100.00
10638;BME280;47007;49.252;8.904;2023-03-26T02:55:20;99068.03;;;6.60;100.00
10638;BME280;47007;49.252;8.904;2023-03-26T02:56:03;99073.06;;;6.70;100.00
10638;BME280;47007;49.252;8.904;2023-03-26T02:56:52;99016.22;;;6.38;100.00
10638;BME280;47007;49.252;8.904;2023-03-26T02:57:53;99068.34;;;6.80;100.00
10638;BME280;47007;49.252;8.904;2023-03-26T02:58:41;99048.66;;;6.76;100.00
10638;BME280;47007;49.252;8.904;2023-03-26T02:59:23;99056.13;;;6.87;100.00
10638;BME280;47007;49.252;8.904;2023-03-26T03:00:24;99054.97;;;6.90;100.00
10638;BME280;47007;49.252;8.904;2023-03-26T03:01:25;99041.59;;;6.76;100.00
10638;BME280;47007;49.252;8.904;2023-03-26T03:02:08;99051.88;;;6.86;100.00
10638;BME280;47007;49.252;8.904;2023-03-26T03:02:51;99004.84;;;6.60;100.00
10638;BME280;47007;49.252;8.904;2023-03-26T03:03:44;99055.22;;;6.95;100.00
10638;BME280;47007;49.252;8.904;2023-03-26T03:04:38;99055.88;;;6.97;100.00
10638;BME280;47007;49.252;8.904;2023-03-26T03:05:20;99045.06;;;6.92;100.00
10638;BME280;47007;49.252;8.904;2023-03-26T03:06:26;99036.88;;;6.87;100.00
10638;BME280;47007;49.252;8.904;2023-03-26T03:07:12;99041.97;;;6.88;100.00
10638;BME280;47007;49.252;8.904;2023-03-26T03:07:58;99048.69;;;6.91;100.00
10638;BME280;47007;49.252;8.904;2023-03-26T03:08:42;99050.69;;;6.89;100.00
10638;BME280;47007;49.252;8.904;2023-03-26T03:09:42;99032.69;;;6.77;100.00
10638;BME280;47007;49.252;8.904;2023-03-26T03:10:55;99038.69;;;6.86;100.00
10638;BME280;47007;49.252;8.904;2023-03-26T03:11:47;99050.34;;;6.92;100.00
10638;BME280;47007;49.252;8.904;2023-03-26T03:12:28;99039.50;;;6.87;100.00
10638;BME280;47007;49.252;8.904;2023-03-26T03:13:10;98937.84;;;6.25;100.00
10638;BME280;47007;49.252;8.904;2023-03-26T03:13:52;99050.34;;;6.92;100.00
10638;BME280;47007;49.252;8.904;2023-03-26T03:14:42;99053.09;;;6.75;100.00
10638;BME280;47007;49.252;8.904;2023-03-26T03:15:24;99028.38;;;6.62;100.00
10638;BME280;47007;49.252;8.904;2023-03-26T03:16:06;99037.78;;;6.56;100.00
10638;BME280;47007;49.252;8.904;2023-03-26T03:16:48;99047.91;;;6.67;100.00
10638;BME280;47007;49.252;8.904;2023-03-26T03:17:29;99051.53;;;6.66;100.00
10638;BME280;47007;49.252;8.904;2023-03-26T03:18:11;99047.53;;;6.70;100.00
10638;BME280;47007;49.252;8.904;2023-03-26T03:18:53;99050.81;;;6.72;100.00
10638;BME280;47007;49.252;8.904;2023-03-26T03:19:40;99049.31;;;6.78;100.00
10638;BME280;47007;49.252;8.904;2023-03-26T03:20:22;99052.13;;;6.76;100.00
10638;BME280;47007;49.252;8.904;2023-03-26T03:21:04;99033.03;;;6.74;100.00
10638;BME280;47007;49.252;8.904;2023-03-26T03:21:46;99049.06;;;6.88;100.00
10638;BME280;47007;49.252;8.904;2023-03-26T03:22:28;99054.50;;;6.86;100.00
10638;BME280;47007;49.252;8.904;2023-03-26T03:23:10;99050.03;;;6.87;100.00
10638;BME280;47007;49.252;8.904;2023-03-26T03:23:53;99048.41;;;6.85;100.00
10638;BME280;47007;49.252;8.904;2023-03-26T03:24:35;99038.59;;;6.79;100.00
10638;BME280;47007;49.252;8.904;2023-03-26T03:25:17;99020.38;;;6.70;100.00
10638;BME280;47007;49.252;8.904;2023-03-26T03:26:00;99048.69;;;6.91;100.00
10638;BME280;47007;49.252;8.904;2023-03-26T03:26:44;99052.59;;;6.95;100.00
10638;BME280;47007;49.252;8.904;2023-03-26T03:27:35;99027.47;;;6.92;100.00
10638;BME280;47007;49.252;8.904;2023-03-26T03:28:24;99033.25;;;6.88;100.00
10638;BME280;47007;49.252;8.904;2023-03-26T03:29:08;99036.16;;;6.93;100.00
10638;BME280;47007;49.252;8.904;2023-03-26T03:29:49;99028.78;;;6.88;100.00
10638;BME280;47007;49.252;8.904;2023-03-26T03:30:59;99038.38;;;7.04;100.00
10638;BME280;47007;49.252;8.904;2023-03-26T03:31:45;99044.25;;;7.06;100.00
10638;BME280;47007;49.252;8.904;2023-03-26T03:32:41;99035.19;;;7.08;100.00
10638;BME280;47007;49.252;8.904;2023-03-26T03:33:24;99037.47;;;7.11;100.00
10638;BME280;47007;49.252;8.904;2023-03-26T03:34:05;99034.66;;;7.13;100.00
10638;BME280;47007;49.252;8.904;2023-03-26T03:34:50;99031.38;;;7.11;100.00
10638;BME280;47007;49.252;8.904;2023-03-26T03:35:32;99014.19;;;7.00;100.00
10638;BME280;47007;49.252;8.904;2023-03-26T03:36:17;99025.81;;;7.06;100.00
10638;BME280;47007;49.252;8.904;2023-03-26T03:37:04;98998.56;;;6.99;100.00
10638;BME280;47007;49.252;8.904;2023-03-26T03:37:56;99038.38;;;7.18;100.00
10638;BME280;47007;49.252;8.904;2023-03-26T03:38:39;99029.84;;;7.16;100.00
10638;BME280;47007;49.252;8.904;2023-03-26T03:39:23;98995.63;;;6.94;100.00
10638;BME280;47007;49.252;8.904;2023-03-26T03:40:05;99032.38;;;7.10;100.00
10638;BME280;47007;49.252;8.904;2023-03-26T03:40:52;98998.84;;;6.89;100.00
10638;BME280;47007;49.252;8.904;2023-03-26T03:41:39;99019.63;;;6.99;100.00
10638;BME280;47007;49.252;8.904;2023-03-26T03:42:26;99009.00;;;6.92;100.00
10638;BME280;47007;49.252;8.904;2023-03-26T03:43:10;99010.81;;;6.92;100.00
10638;BME280;47007;49.252;8.904;2023-03-26T03:44:02;98961.09;;;6.59;100.00
10638;BME280;47007;49.252;8.904;2023-03-26T03:44:46;99013.47;;;6.92;100.00
10638;BME280;47007;49.252;8.904;2023-03-26T03:45:50;98962.72;;;6.60;100.00
10638;BME280;47007;49.252;8.904;2023-03-26T03:46:44;99021.44;;;6.98;100.00
10638;BME280;47007;49.252;8.904;2023-03-26T03:47:25;99019.00;;;6.97;100.00
10638;BME280;47007;49.252;8.904;2023-03-26T03:48:07;98954.56;;;6.55;100.00
10638;BME280;47007;49.252;8.904;2023-03-26T03:48:53;99016.91;;;6.92;100.00
10638;BME280;47007;49.252;8.904;2023-03-26T03:49:48;99007.72;;;6.88;100.00
10638;BME280;47007;49.252;8.904;2023-03-26T03:50:30;99014.81;;;6.88;100.00
10638;BME280;47007;49.252;8.904;2023-03-26T03:51:41;99006.44;;;6.84;100.00
10638;BME280;47007;49.252;8.904;2023-03-26T03:52:38;99011.06;;;6.82;100.00
10638;BME280;47007;49.252;8.904;2023-03-26T03:53:21;99000.25;;;6.77;100.00
10638;BME280;47007;49.252;8.904;2023-03-26T03:54:07;99001.72;;;6.79;100.00
10638;BME280;47007;49.252;8.904;2023-03-26T03:55:12;98967.97;;;6.60;100.00
10638;BME280;47007;49.252;8.904;2023-03-26T03:56:02;98993.72;;;6.73;100.00
10638;BME280;47007;49.252;8.904;2023-03-26T03:57:04;98989.78;;;6.69;100.00
10638;BME280;47007;49.252;8.904;2023-03-26T03:57:46;98987.34;;;6.67;100.00
10638;BME280;47007;49.252;8.904;2023-03-26T03:58:32;98946.44;;;6.42;100.00
10638;BME280;47007;49.252;8.904;2023-03-26T03:59:23;98980.72;;;6.71;100.00
10638;BME280;47007;49.252;8.904;2023-03-26T04:00:05;98996.72;;;6.84;100.00
10638;BME280;47007;49.252;8.904;2023-03-26T04:01:06;98986.38;;;6.83;100.00
10638;BME280;47007;49.252;8.904;2023-03-26T04:02:04;98987.03;;;7.00;100.00
10638;BME280;47007;49.252;8.904;2023-03-26T04:02:52;98949.31;;;6.84;100.00
10638;BME280;47007;49.252;8.904;2023-03-26T04:03:35;98859.66;;;6.34;100.00
10638;BME280;47007;49.252;8.904;2023-03-26T04:04:24;98925.97;;;6.81;100.00
10638;BME280;47007;49.252;8.904;2023-03-26T04:05:12;98979.84;;;7.23;100.00
10638;BME280;47007;49.252;8.904;2023-03-26T04:05:59;98970.50;;;7.20;100.00
10638;BME280;47007;49.252;8.904;2023-03-26T04:06:42;98986.66;;;7.32;100.00
10638;BME280;47007;49.252;8.904;2023-03-26T04:07:28;98982.03;;;7.34;100.00
10638;BME280;47007;49.252;8.904;2023-03-26T04:08:22;98978.69;;;7.40;100.00
10638;BME280;47007;49.252;8.904;2023-03-26T04:09:07;98970.13;;;7.38;100.00
10638;BME280;47007;49.252;8.904;2023-03-26T04:09:51;98978.28;;;7.43;100.00
10638;BME280;47007;49.252;8.904;2023-03-26T04:10:35;98970.78;;;7.40;100.00
10638;BME280;47007;49.252;8.904;2023-03-26T04:11:20;98969.38;;;7.44;100.00
10638;BME280;47007;49.252;8.904;2023-03-26T04:12:22;98972.00;;;7.44;100.00
10638;BME280;47007;49.252;8.904;2023-03-26T04:13:14;98967.56;;;7.45;100.00
10638;BME280;47007;49.252;8.904;2023-03-26T04:14:08;98945.13;;;7.34;100.00
10638;BME280;47007;49.252;8.904;2023-03-26T04:15:23;98968.03;;;7.48;100.00
10638;BME280;47007;49.252;8.904;2023-03-26T04:16:04;98963.56;;;7.49;100.00
10638;BME280;47007;49.252;8.904;2023-03-26T04:16:46;98958.19;;;7.42;100.00
10638;BME280;47007;49.252;8.904;2023-03-26T04:17:29;98959.66;;;7.45;100.00